Time Latitude Longitude Accuracy (66% radius in meters) Altitude (meters) Speed (km/hour) Bearing (degrees) Battery (%) GPS flag
07:42:26 57.212809 60.117416 15.170000076294 279 2.3900001049042 276.29998779297 89 1 delete
07:42:22 57.212802 60.117597 15.170000076294 280 1.9900000095367 232.19999694824 89 1 delete
07:42:18 57.212865 60.117758 15.170000076294 279 1.5299999713898 238.69999694824 89 1 delete
07:42:14 57.212941 60.117896 15.170000076294 278 2.6500000953674 201.39999389648 89 1 delete
07:42:07 57.213015 60.118055 15.170000076294 278 0.28000000119209 237.30000305176 89 1 delete
07:42:06 57.213013 60.118066 15.170000076294 278 0.30000001192093 192.19999694824 89 1 delete
07:41:56 57.213075 60.118179 15.170000076294 277 1.4700000286102 151.19999694824 89 1 delete
07:41:51 57.213145 60.118045 15.170000076294 277 2.039999961853 122.40000152588 89 1 delete
07:41:46 57.213191 60.117902 15.170000076294 276 1.6399999856949 144.69999694824 89 1 delete
07:41:45 57.213208 60.117881 15.170000076294 276 2.2400000095367 145.10000610352 89 1 delete
07:41:42 57.213269 60.117805 15.170000076294 275 1.3500000238419 131.30000305176 89 1 delete
07:41:34 57.213290 60.117643 15.170000076294 273 0.62000000476837 105.80000305176 89 1 delete
07:41:30 57.213309 60.117652 15.170000076294 274 0.34999999403954 168.80000305176 89 1 delete
07:41:23 57.213308 60.117582 15.170000076294 273 1.5299999713898 130.80000305176 89 1 delete
07:41:20 57.213337 60.117491 15.170000076294 273 1.9700000286102 115.69999694824 89 1 delete
07:41:16 57.213416 60.117347 15.170000076294 272 1.9800000190735 145.69999694824 89 1 delete
07:41:13 57.213482 60.117219 16.687000274658 272 2.2999999523163 118.40000152588 89 1 delete
07:41:12 57.213487 60.117155 15.170000076294 272 2.3800001144409 103 89 1 delete
07:41:10 57.213481 60.117036 15.170000076294 272 2.0899999141693 33 89 1 delete
07:41:07 57.213410 60.116927 15.170000076294 272 2.0299999713898 52.200000762939 89 1 delete
07:41:03 57.213328 60.116854 15.170000076294 270 2.5099999904633 337.20001220703 89 1 delete
07:41:01 57.213264 60.116879 13.65299987793 270 2.9000000953674 347.29998779297 89 1 delete
07:41:00 57.213230 60.116888 13.65299987793 271 2.9200000762939 358.89999389648 89 1 delete
07:40:57 57.213139 60.116824 13.65299987793 271 2.5299999713898 20.299999237061 89 1 delete
07:40:53 57.213076 60.116670 13.65299987793 271 2.0499999523163 46.200000762939 89 1 delete
07:40:51 57.213050 60.116612 13.65299987793 271 1.1200000047684 46.599998474121 89 1 delete
07:40:47 57.213041 60.116478 13.65299987793 272 1.0299999713898 107.19999694824 89 1 delete
07:40:42 57.213082 60.116313 13.65299987793 275 2.25 67.699996948242 89 1 delete
07:40:40 57.213065 60.116206 13.65299987793 275 2.7400000095367 43.200000762939 89 1 delete
07:40:38 57.213032 60.116129 15.170000076294 276 2.5199999809265 26.299999237061 89 1 delete
07:40:31 57.213021 60.115961 13.65299987793 270 1.6699999570847 98.400001525879 89 1 delete
07:40:29 57.213035 60.115894 13.65299987793 269 1.3200000524521 99.199996948242 89 1 delete
07:40:26 57.213065 60.115779 13.65299987793 268 2.0099999904633 90.699996948242 89 1 delete
07:40:22 57.213093 60.115591 15.170000076294 267 2.2599999904633 77.699996948242 89 1 delete
07:40:18 57.213079 60.115405 15.170000076294 267 1.9400000572205 71.800003051758 89 1 delete
07:40:13 57.213101 60.115212 15.170000076294 266 2.2400000095367 135.39999389648 89 1 delete
07:40:09 57.213166 60.115078 15.170000076294 267 1.8899999856949 113.40000152588 89 1 delete
07:40:07 57.213192 60.114974 15.170000076294 267 2.2400000095367 102.19999694824 89 1 delete
07:40:06 57.213210 60.114915 15.170000076294 266 0 0 89 1 delete
07:40:02 57.213187 60.114719 13.65299987793 270 1.710000038147 11.800000190735 89 1 delete
07:39:57 57.213105 60.114624 15.170000076294 268 2.2200000286102 44.799999237061 89 1 delete
07:39:56 57.213091 60.114594 15.170000076294 267 1.4900000095367 50.700000762939 89 1 delete
07:39:53 57.213040 60.114475 15.170000076294 266 3.1099998950958 55 89 1 delete
07:39:50 57.212991 60.114325 15.170000076294 266 1.5299999713898 89.699996948242 89 1 delete
07:39:46 57.212992 60.114182 13.65299987793 267 0 0 89 1 delete
07:39:41 57.213016 60.114160 15.170000076294 268 2.5599999427795 26.700000762939 89 1 delete
07:39:36 57.212948 60.114045 15.170000076294 267 2.1600000858307 104.40000152588 89 1 delete
07:39:35 57.212957 60.114002 15.170000076294 269 3.1800000667572 116 89 1 delete
07:39:33 57.213001 60.113872 15.170000076294 268 3.1400001049042 101.69999694824 89 1 delete
07:39:28 57.213012 60.113651 15.170000076294 268 2.25 72.099998474121 89 1 delete